• Join FlightAware (Why Join?)
  • Login
  • US Flag 
09:01PM EDT


 

Airport Tracker/Info


-or-


 

Live Flight TrackerFlight Track Log ✈ EJA583 ✈ 10-Jul-2013 ✈ KXNA - KMAF

Flight Track Log - Related Links

Times and Time Zones

All times are in EDT time to prevent confusion due to time zone crossing. See the EJA583 flight status page for this flight to view local times or setup timezone preferences in your user account.

Time Position Orientation Groundspeed Altitude Reporting Facility
EDT Latitude Longitude Course Direction KTS MPH feet Rate Location/Type
05:29PM 36.1147 -94.5011 270° West 268 308 12,200  Level Memphis Center
05:30PM 36.1039 -94.5803 260° West 249 287 14,800 2,400 Climbing Memphis Center
05:31PM 35.8614 -94.7333 180° South  Level FlightAware Approximate
05:31PM 36.1028 -94.6703 269° West 248 285 17,000  Level Memphis Center
05:32PM 35.7825 -94.8175 219° Southwest  Level FlightAware Approximate
05:32PM 36.0828 -94.7667 256° West 274 315 19,100  Level Memphis Center
05:33PM 35.6990 -94.9011 219° Southwest  Level FlightAware Approximate
05:33PM 36.0236 -94.8456 227° Southwest 293 337 21,100  Level Memphis Center
05:34PM 35.6167 -94.9852 270° West  Level FlightAware Approximate
05:35PM 35.8514 -94.9414 204° Southwest 312 359 25,200  Level Memphis Center
05:37PM 35.6525 -95.0200 198° South 355 409 27,700 1,020 Climbing Fort Worth Center
05:38PM 35.5511 -95.0589 197° South 374 430 28,700 960 Climbing Fort Worth Center
05:39PM 35.4475 -95.1025 199° South 386 444 29,700 780 Climbing Fort Worth Center
05:40PM 35.3353 -95.1233 189° South 398 458 30,300 720 Climbing Fort Worth Center
05:41PM 35.2233 -95.1644 197° South 409 471 31,200 960 Climbing Fort Worth Center
05:42PM 35.1419 -95.2708 227° Southwest 395 455 32,300 1,020 Climbing Fort Worth Center
05:43PM 35.0856 -95.3914 240° Southwest 397 457 33,300 960 Climbing Fort Worth Center
05:44PM 35.0308 -95.5069 240° Southwest 404 465 34,300 960 Climbing Fort Worth Center
05:45PM 34.9742 -95.6247 240° Southwest 404 465 35,300 960 Climbing Fort Worth Center
05:46PM 34.9194 -95.7347 239° Southwest 404 465 36,300 960 Climbing Fort Worth Center
05:47PM 34.8583 -95.8522 238° Southwest 404 465 37,300 840 Climbing Fort Worth Center
05:48PM 34.8036 -95.9722 241° Southwest 410 472 38,000 300 Climbing Fort Worth Center
05:49PM 34.7444 -96.0919 239° Southwest 410 472 38,000  Level Fort Worth Center
05:50PM 34.6831 -96.2167 239° Southwest 420 483 38,000  Level Fort Worth Center
05:51PM 34.6194 -96.3411 238° Southwest 430 495 38,000  Level Fort Worth Center
05:52PM 34.5600 -96.4628 239° Southwest 425 489 38,000  Level Fort Worth Center
05:53PM 34.5003 -96.5869 240° Southwest 425 489 38,000 180 Level Fort Worth Center
05:54PM 34.4386 -96.7111 239° Southwest 425 489 38,400 540 Climbing Fort Worth Center
05:55PM 34.3764 -96.8347 239° Southwest 425 489 39,200 780 Climbing Fort Worth Center
05:56PM 34.3164 -96.9558 239° Southwest 425 489 40,000 360 Climbing Fort Worth Center
05:57PM 34.2542 -97.0744 238° Southwest 425 489 40,000  Level Fort Worth Center
05:58PM 34.1897 -97.1975 238° Southwest 425 489 40,000  Level Fort Worth Center
05:59PM 34.1192 -97.3156 234° Southwest 431 496 40,000  Level Fort Worth Center
06:00PM 34.0606 -97.4186 236° Southwest 431 496 40,000  Level Fort Worth Center
06:01PM 33.9875 -97.5336 233° Southwest 431 496 40,000  Level Fort Worth Center
06:02PM 33.9122 -97.6536 233° Southwest 443 510 40,000  Level Fort Worth Center
06:03PM 33.8411 -97.7686 233° Southwest 443 510 40,000  Level Fort Worth Center
06:04PM 33.7675 -97.8858 233° Southwest 443 510 40,000  Level Fort Worth Center
06:05PM 33.6939 -98.0028 233° Southwest 443 510 40,000  Level Fort Worth Center
06:06PM 33.6203 -98.1194 233° Southwest 443 510 40,000  Level Fort Worth Center
06:07PM 33.5383 -98.2433 232° Southwest 443 510 40,000  Level Fort Worth Center
06:08PM 33.4622 -98.3597 232° Southwest 443 510 40,000  Level Fort Worth Center
06:09PM 33.3967 -98.4633 233° Southwest 443 510 40,000  Level Fort Worth Center
06:10PM 33.3228 -98.5769 232° Southwest 443 510 40,000  Level Fort Worth Center
06:11PM 33.2464 -98.6925 232° Southwest 443 510 40,000  Level Fort Worth Center
06:12PM 33.1700 -98.8106 232° Southwest 448 516 40,000  Level Fort Worth Center
06:13PM 33.0956 -98.9311 234° Southwest 453 521 40,000  Level Fort Worth Center
06:14PM 33.0189 -99.0461 232° Southwest 453 521 40,000  Level Fort Worth Center
06:15PM 32.9422 -99.1611 232° Southwest 453 521 40,000  Level Fort Worth Center
06:16PM 32.8675 -99.2758 232° Southwest 453 521 40,000  Level Fort Worth Center
06:17PM 32.7883 -99.3928 231° Southwest 458 527 40,000  Level Fort Worth Center
06:18PM 32.7114 -99.5097 232° Southwest 458 527 40,000  Level Fort Worth Center
06:19PM 32.6256 -99.6383 232° Southwest 452 520 40,000  Level Fort Worth Center
06:20PM 32.5422 -99.7519 229° Southwest 458 527 40,000  Level Fort Worth Center
06:21PM 32.4772 -99.8808 239° Southwest 463 533 40,000  Level Fort Worth Center
06:22PM 32.4575 -100.0256 261° West 448 516 40,000  Level Fort Worth Center
06:23PM 32.4419 -100.1703 263° West 448 516 40,000  Level Fort Worth Center
06:24PM 32.4242 -100.3125 262° West 448 516 40,000  Level Fort Worth Center
06:25PM 32.3811 -100.4489 250° West 448 516 40,000 -600 Level Fort Worth Center
06:26PM 32.3278 -100.5800 244° Southwest 448 516 38,800 -1,500 Descending Fort Worth Center
06:27PM 32.2764 -100.7108 245° Southwest 448 516 37,100 -1,860 Descending Fort Worth Center
06:28PM 32.2250 -100.8417 245° Southwest 448 516 35,100 -1,800 Descending Fort Worth Center
06:29PM 32.1844 -100.9456 245° Southwest 443 510 33,600 -1,860 Descending Fort Worth Center
06:30PM 32.1303 -101.0858 246° West 436 502 31,400 -2,400 Descending Fort Worth Center
06:31PM 32.0989 -101.2267 255° West 441 507 28,900 -3,060 Descending Fort Worth Center
06:32PM 32.0758 -101.3656 259° West 441 507 25,300 -3,600 Descending Fort Worth Center
06:33PM 32.0547 -101.5042 260° West 441 507 21,800 -3,480 Descending Fort Worth Center
06:34PM 32.0464 -101.6361 266° West 429 494 18,400 -3,360 Descending Fort Worth Center
06:35PM 32.0378 -101.7633 265° West 408 470 15,100 -3,300 Descending Fort Worth Center
06:36PM 32.0314 -101.8853 266° West 395 455 11,800 -3,120 Descending Fort Worth Center
06:37PM 32.0294 -101.9931 269° West 363 418 8,900 -2,880 Descending Fort Worth Center
06:38PM 32.0306 -102.0764 271° West 310 357 6,100 -2,100 Descending Fort Worth Center
06:39PM 32.0361 -102.1553 275° West 265 305 4,800 -1,200 Descending Fort Worth Center
06:40PM 32.0131 -102.2128 245° Southwest 232 267 3,800 -840 Descending Fort Worth Center
06:41PM 31.9756 -102.2108 177° South 148 170 3,200 -360 Descending Fort Worth Center
06:42PM 31.9456 -102.2336 213° Southwest 127 146 3,100 5,400 Descending Fort Worth Center
06:43PM 31.9175 -102.2567 215° Southwest 127 146 14,000 5,400 Climbing Fort Worth Center
06:44PM 31.8914 -102.2797 217° Southwest 127 146 14,000  Level Fort Worth Center
06:45PM 31.8633 -102.3028 215° Southwest 127 146 14,000  Level Fort Worth Center
06:46PM 31.8592 -102.3072 222° Southwest 127 146 14,000  Level Fort Worth Center